RJSH(METAR)
12/11 18:00
METAR RJSH 110900Z 23005KT 9999 FEW030 BKN170 00/M05 Q1027 RMK
1CU030 7AC170 A3034=
戻る
トップページへ戻る
IMOC Co,.Ltd.